createdAt,value
2022-08-10T00:00:35.743Z,6.25
2022-08-10T00:02:44.625Z,4.28
2022-08-10T00:05:06.554Z,2.45
2022-08-10T00:07:11.266Z,4.43
2022-08-10T00:09:16.343Z,4.07
2022-08-10T00:11:23.563Z,4.47
2022-08-10T00:13:30.131Z,2.53
2022-08-10T00:15:53.199Z,4.00
2022-08-10T00:18:01.982Z,5.03
2022-08-10T00:20:08.747Z,3.55
2022-08-10T00:22:17.119Z,4.25
2022-08-10T00:24:23.581Z,6.05
2022-08-10T00:27:50.401Z,4.32
2022-08-10T00:28:53.355Z,5.40
2022-08-10T00:30:57.908Z,5.93
2022-08-10T00:33:02.326Z,6.10
2022-08-10T00:35:08.471Z,3.47
2022-08-10T00:37:15.863Z,3.25
2022-08-10T00:39:20.287Z,3.63
2022-08-10T00:41:25.514Z,4.75
2022-08-10T00:43:32.099Z,4.10
2022-08-10T00:45:37.212Z,5.68
2022-08-10T00:47:41.511Z,2.92
2022-08-10T00:49:46.430Z,4.40
2022-08-10T00:51:52.719Z,5.07
2022-08-10T00:53:57.379Z,4.50
2022-08-10T00:57:15.049Z,4.38
2022-08-10T00:58:28.437Z,5.75
2022-08-10T01:00:33.335Z,2.72
2022-08-10T01:02:38.888Z,5.18
2022-08-10T01:05:00.376Z,3.92
2022-08-10T01:07:35.232Z,3.38
2022-08-10T01:10:12.915Z,3.83
2022-08-10T01:12:40.248Z,6.50
2022-08-10T01:15:17.537Z,6.10
2022-08-10T01:17:50.665Z,5.93
2022-08-10T01:20:10.806Z,4.00
2022-08-10T01:22:56.213Z,5.07
2022-08-10T01:25:23.856Z,6.03
2022-08-10T01:27:43.868Z,5.57
2022-08-10T01:30:11.450Z,4.40
2022-08-10T01:32:19.130Z,5.03
2022-08-10T01:34:26.057Z,6.40
2022-08-10T01:36:37.988Z,5.57
2022-08-10T01:38:48.111Z,5.15
2022-08-10T01:41:06.603Z,4.15
2022-08-10T01:43:12.122Z,5.43
2022-08-10T01:45:16.767Z,6.13
2022-08-10T01:47:33.802Z,5.32
2022-08-10T01:49:42.895Z,4.80
2022-08-10T01:51:54.174Z,2.95
2022-08-10T01:54:13.155Z,3.88
2022-08-10T01:56:21.909Z,5.05
2022-08-10T01:58:26.519Z,2.72
2022-08-10T02:00:33.422Z,4.65
2022-08-10T02:02:40.484Z,4.15
2022-08-10T02:04:47.280Z,3.97
2022-08-10T02:06:52.624Z,2.13
2022-08-10T02:09:06.600Z,2.83
2022-08-10T02:11:12.145Z,3.45
2022-08-10T02:13:19.074Z,3.35
2022-08-10T02:15:26.043Z,3.60
2022-08-10T02:17:57.491Z,4.32
2022-08-10T02:20:06.595Z,4.18
2022-08-10T02:22:38.080Z,5.85
2022-08-10T02:24:38.624Z,2.03
2022-08-10T02:26:45.082Z,2.83
2022-08-10T02:28:49.480Z,2.83
2022-08-10T02:30:55.578Z,4.63
2022-08-10T02:33:02.475Z,3.70
2022-08-10T02:35:22.036Z,3.47
2022-08-10T02:37:28.232Z,3.50
2022-08-10T02:39:37.194Z,2.25
2022-08-10T02:45:12.564Z,4.20
2022-08-10T02:45:17.969Z,4.78
2022-08-10T02:47:46.652Z,2.05
2022-08-10T02:50:09.348Z,1.80
2022-08-10T02:52:51.402Z,2.05
2022-08-10T02:55:18.037Z,3.75
2022-08-10T02:57:30.433Z,7.75
2022-08-10T02:59:40.940Z,6.03
2022-08-10T03:01:48.155Z,5.10
2022-08-10T03:04:02.581Z,4.07
2022-08-10T03:06:14.427Z,4.93
2022-08-10T03:08:21.082Z,5.05
2022-08-10T03:10:40.810Z,4.25
2022-08-10T03:12:47.886Z,3.20
2022-08-10T03:14:55.144Z,4.32
2022-08-10T03:16:59.508Z,4.10
2022-08-10T03:19:07.355Z,7.63
2022-08-10T03:21:32.590Z,3.85
2022-08-10T03:23:36.881Z,4.43
2022-08-10T03:25:41.443Z,3.88
2022-08-10T03:28:01.113Z,2.90
2022-08-10T03:30:28.477Z,4.10
2022-08-10T03:32:30.635Z,5.35
2022-08-10T03:34:37.558Z,6.38
2022-08-10T03:36:45.025Z,4.13
2022-08-10T03:38:52.836Z,4.53
2022-08-10T03:40:58.906Z,2.65
2022-08-10T03:43:03.869Z,3.22
2022-08-10T03:45:09.392Z,3.15
2022-08-10T03:47:16.057Z,2.53
2022-08-10T03:49:21.643Z,3.70
2022-08-10T03:51:30.183Z,1.58
2022-08-10T03:54:03.394Z,2.95
2022-08-10T03:56:29.909Z,2.35
2022-08-10T03:58:28.992Z,3.88
2022-08-10T04:00:36.123Z,3.70
2022-08-10T04:02:48.198Z,3.53
2022-08-10T04:04:54.700Z,2.67
2022-08-10T04:07:00.180Z,1.42
2022-08-10T04:09:04.715Z,1.20
2022-08-10T04:11:11.474Z,2.35
2022-08-10T04:13:17.803Z,2.78
2022-08-10T04:15:22.604Z,3.13
2022-08-10T04:17:57.459Z,1.55
2022-08-10T04:19:55.890Z,0.98
2022-08-10T04:22:06.597Z,2.22
2022-08-10T04:24:13.830Z,2.53
2022-08-10T04:26:31.457Z,1.13
2022-08-10T04:28:36.679Z,1.58
2022-08-10T04:30:43.130Z,2.83
2022-08-10T04:32:49.310Z,1.77
2022-08-10T04:34:53.587Z,3.17
2022-08-10T04:36:58.206Z,2.30
2022-08-10T04:39:04.812Z,0.88
2022-08-10T04:41:10.169Z,1.23
2022-08-10T04:43:16.967Z,1.38
2022-08-10T04:45:23.610Z,1.77
2022-08-10T04:48:00.913Z,4.20
2022-08-10T04:50:11.713Z,0.75
2022-08-10T04:52:16.547Z,2.25
2022-08-10T04:54:21.247Z,1.55
2022-08-10T04:56:31.822Z,6.60
2022-08-10T04:58:37.606Z,2.20
2022-08-10T05:00:42.024Z,1.42
2022-08-10T05:02:48.833Z,2.22
2022-08-10T05:04:53.333Z,3.47
2022-08-10T05:06:57.937Z,1.63
2022-08-10T05:09:04.141Z,1.85
2022-08-10T05:11:08.444Z,2.38
2022-08-10T05:13:12.642Z,1.95
2022-08-10T05:15:22.247Z,1.30
2022-08-10T05:17:28.544Z,1.77
2022-08-10T05:20:04.639Z,2.00
2022-08-10T05:22:04.611Z,2.00
2022-08-10T05:24:09.977Z,1.92
2022-08-10T05:26:14.626Z,3.13
2022-08-10T05:28:21.022Z,1.13
2022-08-10T05:30:30.670Z,0.90
2022-08-10T05:32:57.164Z,0.63
2022-08-10T05:35:02.568Z,1.38
2022-08-10T05:38:09.920Z,1.52
2022-08-10T05:39:33.625Z,6.90
2022-08-10T05:41:44.764Z,1.75
2022-08-10T05:43:52.650Z,2.92
2022-08-10T05:46:17.398Z,0.70
2022-08-10T05:48:40.812Z,2.33
2022-08-10T05:50:50.468Z,0.88
2022-08-10T05:52:55.366Z,2.85
2022-08-10T05:55:03.058Z,2.05
2022-08-10T05:57:07.603Z,0.85
2022-08-10T05:59:15.608Z,1.58
2022-08-10T06:01:43.289Z,1.10
2022-08-10T06:04:08.401Z,1.17
2022-08-10T06:06:12.930Z,1.33
2022-08-10T06:08:27.383Z,0.52
2022-08-10T06:10:35.503Z,1.00
2022-08-10T06:12:55.424Z,0.63
2022-08-10T06:15:10.234Z,0.85
2022-08-10T06:17:26.048Z,1.52
2022-08-10T06:19:30.859Z,0.88
2022-08-10T06:21:36.856Z,2.00
2022-08-10T06:23:43.426Z,1.05
2022-08-10T06:26:10.670Z,1.48
2022-08-10T06:28:17.437Z,1.00
2022-08-10T06:30:23.721Z,0.73
2022-08-10T06:32:29.582Z,1.85
2022-08-10T06:34:38.967Z,1.25
2022-08-10T06:36:45.314Z,1.77
2022-08-10T06:38:49.817Z,1.55
2022-08-10T06:40:58.755Z,4.18
2022-08-10T06:43:07.141Z,0.85
2022-08-10T06:45:20.055Z,1.50
2022-08-10T06:47:41.037Z,2.38
2022-08-10T06:49:47.651Z,0.57
2022-08-10T06:51:58.223Z,2.75
2022-08-10T06:54:12.820Z,0.88
2022-08-10T06:56:20.290Z,0.88
2022-08-10T06:58:58.948Z,0.73
2022-08-10T07:01:07.122Z,1.17
2022-08-10T07:03:12.931Z,0.85
2022-08-10T07:05:21.122Z,0.90
2022-08-10T07:07:29.354Z,2.53
2022-08-10T07:09:37.015Z,1.30
2022-08-10T07:11:41.789Z,1.90
2022-08-10T07:14:14.524Z,0.82
2022-08-10T07:16:14.204Z,2.95
2022-08-10T07:18:19.588Z,1.13
2022-08-10T07:20:26.678Z,1.52
2022-08-10T07:23:01.374Z,2.30
2022-08-10T07:24:58.846Z,0.57
2022-08-10T07:27:03.115Z,4.80
2022-08-10T07:29:07.922Z,3.03
2022-08-10T07:31:56.194Z,0.93
2022-08-10T07:33:57.389Z,1.35
2022-08-10T07:36:03.689Z,1.63
2022-08-10T07:38:08.465Z,0.60
2022-08-10T07:40:15.022Z,0.82
2022-08-10T07:42:24.401Z,0.80
2022-08-10T07:44:29.160Z,1.83
2022-08-10T07:46:36.323Z,1.52
2022-08-10T07:48:47.360Z,2.20
2022-08-10T07:50:52.130Z,2.38
2022-08-10T07:53:01.398Z,0.95
2022-08-10T07:55:06.626Z,1.73
2022-08-10T07:57:31.039Z,1.15
2022-08-10T07:59:42.238Z,2.38
2022-08-10T08:01:51.447Z,2.30
2022-08-10T08:04:05.712Z,2.90
2022-08-10T08:06:17.095Z,1.05
2022-08-10T08:08:23.448Z,0.95
2022-08-10T08:10:29.553Z,4.53
2022-08-10T08:12:37.196Z,1.23
2022-08-10T08:14:45.245Z,3.45
2022-08-10T08:16:51.660Z,0.90
2022-08-10T08:19:26.347Z,2.95
2022-08-10T08:24:09.315Z,1.10
2022-08-10T08:24:10.569Z,2.15
2022-08-10T08:26:15.614Z,0.98
2022-08-10T08:28:22.637Z,1.83
2022-08-10T08:30:28.075Z,0.98
2022-08-10T08:32:34.970Z,0.47
2022-08-10T08:34:42.497Z,0.77
2022-08-10T08:36:47.885Z,1.45
2022-08-10T08:38:54.209Z,0.57
2022-08-10T08:41:21.203Z,1.95
2022-08-10T08:43:56.930Z,1.02
2022-08-10T08:46:29.783Z,2.83
2022-08-10T08:48:59.934Z,1.90
2022-08-10T08:52:09.538Z,3.05
2022-08-10T08:54:16.004Z,1.77
2022-08-10T08:56:40.236Z,1.05
2022-08-10T08:59:04.673Z,4.20
2022-08-10T09:01:40.408Z,1.40
2022-08-10T09:04:21.856Z,1.85
2022-08-10T09:06:54.258Z,3.58
2022-08-10T09:09:30.800Z,1.02
2022-08-10T09:12:07.288Z,1.90
2022-08-10T09:14:32.122Z,1.80
2022-08-10T09:16:53.009Z,1.05
2022-08-10T09:19:19.800Z,0.73
2022-08-10T09:21:59.189Z,2.42
2022-08-10T09:24:20.495Z,0.38
2022-08-10T09:26:45.382Z,1.23
2022-08-10T09:29:11.919Z,0.30
2022-08-10T09:31:22.373Z,2.08
2022-08-10T09:36:22.446Z,0.85
2022-08-10T09:36:55.687Z,0.57
2022-08-10T09:40:56.378Z,1.38
2022-08-10T09:42:15.595Z,1.13
2022-08-10T09:44:57.465Z,0.88
2022-08-10T09:48:02.542Z,2.65
2022-08-10T09:50:43.027Z,1.33
2022-08-10T09:53:25.483Z,6.85
2022-08-10T09:56:18.218Z,2.95
2022-08-10T09:58:49.404Z,3.80
2022-08-10T10:01:56.927Z,2.55
2022-08-10T10:04:04.193Z,3.05
2022-08-10T10:06:34.672Z,2.45
2022-08-10T10:09:10.602Z,2.42
2022-08-10T10:11:40.000Z,1.77
2022-08-10T10:14:24.889Z,1.77
2022-08-10T10:17:02.808Z,3.17
2022-08-10T10:19:40.898Z,2.08
2022-08-10T10:22:10.018Z,3.90
2022-08-10T10:24:40.499Z,3.25
2022-08-10T10:27:00.391Z,2.70
2022-08-10T10:29:58.110Z,3.08
2022-08-10T10:32:13.076Z,4.05
2022-08-10T10:34:31.974Z,3.67
2022-08-10T10:36:36.602Z,2.88
2022-08-10T10:38:42.918Z,3.33
2022-08-10T10:41:12.718Z,3.42
2022-08-10T10:43:49.165Z,2.45
2022-08-10T10:46:13.855Z,3.67
2022-08-10T10:48:34.948Z,2.28
2022-08-10T10:51:11.427Z,3.72
2022-08-10T10:53:29.625Z,4.25
2022-08-10T10:56:14.929Z,1.88
2022-08-10T10:58:40.879Z,3.33
2022-08-10T11:01:17.470Z,1.52
2022-08-10T11:04:03.432Z,6.40
2022-08-10T11:06:40.109Z,5.68
2022-08-10T11:08:52.372Z,3.28
2022-08-10T11:14:27.428Z,3.58
2022-08-10T11:17:05.262Z,2.20
2022-08-10T11:20:02.153Z,2.60
2022-08-10T11:22:45.958Z,2.05
2022-08-10T11:25:22.760Z,3.78
2022-08-10T11:27:59.369Z,1.65
2022-08-10T11:30:12.422Z,4.32
2022-08-10T11:32:34.277Z,1.80
2022-08-10T11:35:10.532Z,1.60
2022-08-10T11:38:30.926Z,3.97
2022-08-10T11:40:44.510Z,4.47
2022-08-10T11:43:11.353Z,6.60
2022-08-10T11:45:23.344Z,4.20
2022-08-10T11:47:48.569Z,10.43
2022-08-10T11:50:10.290Z,8.93
2022-08-10T11:52:18.322Z,2.22
2022-08-10T11:54:54.627Z,3.63
2022-08-10T11:57:02.860Z,2.22
2022-08-10T11:59:20.050Z,2.97
2022-08-10T12:01:28.315Z,4.30
2022-08-10T12:03:35.571Z,4.05
2022-08-10T12:05:48.204Z,3.28
2022-08-10T12:10:04.842Z,16.73
2022-08-10T12:10:43.767Z,26.00
2022-08-10T12:13:19.027Z,9.75
2022-08-10T12:15:38.005Z,10.48
2022-08-10T12:17:46.651Z,13.68
2022-08-10T12:20:16.902Z,14.02
2022-08-10T12:22:25.205Z,9.48
2022-08-10T12:24:50.988Z,9.95
2022-08-10T12:27:24.726Z,7.53
2022-08-10T12:34:29.299Z,3.35
2022-08-10T12:36:41.339Z,3.70
2022-08-10T12:39:13.035Z,2.08
2022-08-10T12:41:44.541Z,2.05
2022-08-10T12:44:04.219Z,2.63
2022-08-10T12:46:39.618Z,2.60
2022-08-10T12:48:51.904Z,4.50
2022-08-10T12:51:08.281Z,16.40
2022-08-10T12:54:02.319Z,12.70
2022-08-10T12:56:06.952Z,5.90
2022-08-10T12:58:59.371Z,4.95
2022-08-10T13:01:12.884Z,1.52
2022-08-10T13:03:11.959Z,2.67
2022-08-10T13:05:17.449Z,2.55
2022-08-10T13:08:25.612Z,3.40
2022-08-10T13:10:07.297Z,2.17
2022-08-10T13:12:35.974Z,2.58
2022-08-10T13:15:45.593Z,3.10
2022-08-10T13:17:42.812Z,4.65
2022-08-10T13:19:56.541Z,4.70
2022-08-10T13:22:05.663Z,2.92
2022-08-10T13:24:14.232Z,3.92
2022-08-10T13:26:20.462Z,7.75
2022-08-10T13:28:36.273Z,3.72
2022-08-10T13:30:43.214Z,6.20
2022-08-10T13:32:54.960Z,4.07
2022-08-10T13:35:04.488Z,2.50
2022-08-10T13:37:12.149Z,6.82
2022-08-10T13:39:16.572Z,5.00
2022-08-10T13:41:23.230Z,6.60
2022-08-10T13:43:29.425Z,5.50
2022-08-10T13:45:33.825Z,3.85
2022-08-10T13:47:48.839Z,4.30
2022-08-10T13:50:05.362Z,3.92
2022-08-10T13:52:15.033Z,2.38
2022-08-10T13:54:19.684Z,4.05
2022-08-10T13:56:24.360Z,2.35
2022-08-10T13:58:37.853Z,3.25
2022-08-10T14:03:04.629Z,2.22
2022-08-10T14:05:09.994Z,5.70
2022-08-10T14:07:17.380Z,4.75
2022-08-10T14:09:26.513Z,2.40
2022-08-10T14:11:31.089Z,3.25
2022-08-10T14:13:40.661Z,2.17
2022-08-10T14:15:46.388Z,2.45
2022-08-10T14:17:55.080Z,1.73
2022-08-10T14:20:02.640Z,4.10
2022-08-10T14:22:10.501Z,3.85
2022-08-10T14:24:26.264Z,2.83
2022-08-10T14:26:33.993Z,2.40
2022-08-10T14:28:44.486Z,3.55
2022-08-10T14:30:55.965Z,4.93
2022-08-10T14:33:07.119Z,4.72
2022-08-10T14:36:18.658Z,3.50
2022-08-10T14:37:44.387Z,4.15
2022-08-10T14:40:05.547Z,3.00
2022-08-10T14:42:25.564Z,3.05
2022-08-10T14:44:32.429Z,3.35
2022-08-10T14:46:40.431Z,2.17
2022-08-10T14:48:50.944Z,2.63
2022-08-10T14:50:57.021Z,9.95
2022-08-10T14:53:12.051Z,6.30
2022-08-10T14:55:20.156Z,2.72
2022-08-10T14:58:20.398Z,3.30
2022-08-10T15:00:24.697Z,2.83
2022-08-10T15:02:40.843Z,4.65
2022-08-10T15:04:45.932Z,4.90
2022-08-10T15:06:57.552Z,1.95
2022-08-10T15:09:05.785Z,2.28
2022-08-10T15:12:15.856Z,2.97
2022-08-10T15:14:12.437Z,4.85
2022-08-10T15:16:16.843Z,3.45
2022-08-10T15:18:26.323Z,3.97
2022-08-10T15:20:32.357Z,1.60
2022-08-10T15:22:38.686Z,4.85
2022-08-10T15:24:55.890Z,2.85
2022-08-10T15:27:00.987Z,2.35
2022-08-10T15:29:22.676Z,4.53
2022-08-10T15:31:35.003Z,3.72
2022-08-10T15:34:04.973Z,3.42
2022-08-10T15:36:27.266Z,2.55
2022-08-10T15:38:50.111Z,7.10
2022-08-10T15:41:01.970Z,3.75
2022-08-10T15:43:24.813Z,5.43
2022-08-10T15:45:29.951Z,3.30
2022-08-10T15:47:46.883Z,5.18
2022-08-10T15:50:13.925Z,6.90
2022-08-10T15:53:00.036Z,4.03
2022-08-10T15:54:59.122Z,2.65
2022-08-10T15:57:19.992Z,2.55
2022-08-10T15:59:48.632Z,2.95
2022-08-10T16:02:13.523Z,6.80
2022-08-10T16:04:34.199Z,2.53
2022-08-10T16:06:45.198Z,3.50
2022-08-10T16:08:56.887Z,5.13
2022-08-10T16:11:22.240Z,4.95
2022-08-10T16:13:50.626Z,6.28
2022-08-10T16:16:02.927Z,6.13
2022-08-10T16:18:12.441Z,5.38
2022-08-10T16:20:22.436Z,4.28
2022-08-10T16:22:36.496Z,7.72
2022-08-10T16:24:42.587Z,2.50
2022-08-10T16:26:48.297Z,2.78
2022-08-10T16:29:01.390Z,4.30
2022-08-10T16:31:09.328Z,3.08
2022-08-10T16:33:15.298Z,2.65
2022-08-10T16:35:22.994Z,5.25
2022-08-10T16:37:56.657Z,3.80
2022-08-10T16:40:00.999Z,3.58
2022-08-10T16:42:20.741Z,5.05
2022-08-10T16:44:32.780Z,3.83
2022-08-10T16:46:43.736Z,2.17
2022-08-10T16:48:51.663Z,3.35
2022-08-10T16:50:59.360Z,2.92
2022-08-10T16:53:04.465Z,2.75
2022-08-10T16:55:24.736Z,3.47
2022-08-10T16:57:43.389Z,4.97
2022-08-10T16:59:47.924Z,2.90
2022-08-10T17:01:54.681Z,1.05
2022-08-10T17:04:05.728Z,4.10
2022-08-10T17:06:17.546Z,4.07
2022-08-10T17:08:24.917Z,5.50
2022-08-10T17:10:31.446Z,4.50
2022-08-10T17:12:38.381Z,2.35
2022-08-10T17:14:44.914Z,4.70
2022-08-10T17:16:54.644Z,2.38
2022-08-10T17:18:59.480Z,1.83
2022-08-10T17:21:08.444Z,5.35
2022-08-10T17:23:14.770Z,2.90
2022-08-10T17:25:24.945Z,4.18
2022-08-10T17:28:04.418Z,3.58
2022-08-10T17:30:32.242Z,3.10
2022-08-10T17:32:53.889Z,4.03
2022-08-10T17:35:00.294Z,1.95
2022-08-10T17:37:07.239Z,3.53
2022-08-10T17:39:13.656Z,3.75
2022-08-10T17:41:23.783Z,4.45
2022-08-10T17:43:46.455Z,3.80
2022-08-10T17:45:58.026Z,4.95
2022-08-10T17:48:07.242Z,3.80
2022-08-10T17:50:14.971Z,4.93
2022-08-10T17:52:25.051Z,5.97
2022-08-10T17:54:37.807Z,4.22
2022-08-10T17:56:42.326Z,2.08
2022-08-10T17:58:53.808Z,3.13
2022-08-10T18:01:38.156Z,2.72
2022-08-10T18:03:44.768Z,3.38
2022-08-10T18:06:10.409Z,4.50
2022-08-10T18:08:16.452Z,3.33
2022-08-10T18:10:23.870Z,2.50
2022-08-10T18:12:38.870Z,5.05
2022-08-10T18:14:45.336Z,2.03
2022-08-10T18:16:54.809Z,4.18
2022-08-10T18:19:21.931Z,3.88
2022-08-10T18:21:35.435Z,4.43
2022-08-10T18:23:45.001Z,5.22
2022-08-10T18:26:04.205Z,2.78
2022-08-10T18:28:11.947Z,3.60
2022-08-10T18:30:19.088Z,4.95
2022-08-10T18:32:25.760Z,4.05
2022-08-10T18:34:31.409Z,4.32
2022-08-10T18:36:41.811Z,5.03
2022-08-10T18:38:49.962Z,4.82
2022-08-10T18:41:02.308Z,3.53
2022-08-10T18:44:04.428Z,2.53
2022-08-10T18:45:34.414Z,4.35
2022-08-10T18:47:59.088Z,2.70
2022-08-10T18:50:15.416Z,4.43
2022-08-10T18:52:22.309Z,3.88
2022-08-10T18:54:39.569Z,6.20
2022-08-10T18:57:00.577Z,5.10
2022-08-10T18:59:38.323Z,3.38
2022-08-10T19:02:14.535Z,4.78
2022-08-10T19:04:37.128Z,4.72
2022-08-10T19:07:15.464Z,3.60
2022-08-10T19:09:46.040Z,3.53
2022-08-10T19:12:30.169Z,4.00
2022-08-10T19:15:07.634Z,3.17
2022-08-10T19:18:06.298Z,2.63
2022-08-10T19:20:18.529Z,4.57
2022-08-10T19:22:40.347Z,5.25
2022-08-10T19:25:10.238Z,5.28
2022-08-10T19:27:57.685Z,4.63
2022-08-10T19:30:17.401Z,4.85
2022-08-10T19:32:46.283Z,3.65
2022-08-10T19:35:13.843Z,5.95
2022-08-10T19:37:36.363Z,3.55
2022-08-10T19:40:00.587Z,5.00
2022-08-10T19:42:12.976Z,3.92
2022-08-10T19:44:40.407Z,5.30
2022-08-10T19:46:50.081Z,3.45
2022-08-10T19:49:07.324Z,4.90
2022-08-10T19:51:27.838Z,3.63
2022-08-10T19:54:01.646Z,6.30
2022-08-10T19:56:34.300Z,4.75
2022-08-10T19:59:02.217Z,3.58
2022-08-10T20:01:07.949Z,4.40
2022-08-10T20:03:45.325Z,3.15
2022-08-10T20:06:19.790Z,6.93
2022-08-10T20:08:39.360Z,4.05
2022-08-10T20:11:44.951Z,4.93
2022-08-10T20:13:59.353Z,9.85
2022-08-10T20:16:18.470Z,3.17
2022-08-10T20:18:45.449Z,4.82
2022-08-10T20:21:14.017Z,5.78
2022-08-10T20:23:36.905Z,4.63
2022-08-10T20:25:46.215Z,3.83
2022-08-10T20:28:14.711Z,2.60
2022-08-10T20:30:19.177Z,5.50
2022-08-10T20:32:30.098Z,6.18
2022-08-10T20:34:50.193Z,5.03
2022-08-10T20:37:06.232Z,3.85
2022-08-10T20:39:35.325Z,3.78
2022-08-10T20:42:02.953Z,4.50
2022-08-10T20:44:33.442Z,4.13
2022-08-10T20:46:54.675Z,6.50
2022-08-10T20:49:24.228Z,4.43
2022-08-10T20:51:58.908Z,5.00
2022-08-10T20:54:08.483Z,7.05
2022-08-10T20:56:38.798Z,7.32
2022-08-10T20:59:09.129Z,6.47
2022-08-10T21:02:07.045Z,4.97
2022-08-10T21:04:22.742Z,4.93
2022-08-10T21:06:52.856Z,4.03
2022-08-10T21:09:29.862Z,4.32
2022-08-10T21:12:00.992Z,5.65
2022-08-10T21:14:37.795Z,6.28
2022-08-10T21:17:16.284Z,4.53
2022-08-10T21:19:53.781Z,6.55
2022-08-10T21:22:16.504Z,5.57
2022-08-10T21:24:27.586Z,5.82
2022-08-10T21:26:57.690Z,5.60
2022-08-10T21:29:37.773Z,5.75
2022-08-10T21:32:17.828Z,5.55
2022-08-10T21:34:54.414Z,9.10
2022-08-10T21:37:26.284Z,5.65
2022-08-10T21:42:44.750Z,4.57
2022-08-10T21:45:22.113Z,5.93
2022-08-10T21:48:31.352Z,7.07
2022-08-10T21:50:55.708Z,6.53
2022-08-10T21:53:22.542Z,6.60
2022-08-10T21:56:22.672Z,6.53
2022-08-10T21:58:52.818Z,6.95
2022-08-10T22:01:12.952Z,7.85
2022-08-10T22:03:39.934Z,6.80
2022-08-10T22:06:00.401Z,9.88
2022-08-10T22:08:19.447Z,6.32
2022-08-10T22:10:43.915Z,8.13
2022-08-10T22:13:00.911Z,5.85
2022-08-10T22:16:03.803Z,6.13
2022-08-10T22:18:06.283Z,6.40
2022-08-10T22:20:28.476Z,4.50
2022-08-10T22:22:59.495Z,7.72
2022-08-10T22:25:36.160Z,6.85
2022-08-10T22:27:54.487Z,4.53
2022-08-10T22:30:11.710Z,6.78
2022-08-10T22:32:47.355Z,5.22
2022-08-10T22:35:17.107Z,4.93
2022-08-10T22:38:02.375Z,5.53
2022-08-10T22:40:28.260Z,5.20
2022-08-10T22:43:10.669Z,5.28
2022-08-10T22:45:32.016Z,7.50
2022-08-10T22:47:48.594Z,67.15
2022-08-10T22:49:57.173Z,55.13
2022-08-10T22:52:18.231Z,56.70
2022-08-10T22:54:55.180Z,31.60
2022-08-10T22:57:17.967Z,15.80
2022-08-10T22:59:30.005Z,13.38
2022-08-10T23:02:08.538Z,7.68
2022-08-10T23:04:25.088Z,5.95
2022-08-10T23:06:32.421Z,7.18
2022-08-10T23:08:54.804Z,8.32
2022-08-10T23:11:04.528Z,7.68
2022-08-10T23:13:35.470Z,10.40
2022-08-10T23:16:03.615Z,7.15
2022-08-10T23:18:23.414Z,5.90
2022-08-10T23:20:27.813Z,13.15
2022-08-10T23:22:38.520Z,6.55
2022-08-10T23:25:15.737Z,5.25
2022-08-10T23:27:37.852Z,7.38
2022-08-10T23:30:10.740Z,7.85
2022-08-10T23:32:20.036Z,5.70
2022-08-10T23:34:26.879Z,7.25
2022-08-10T23:36:36.842Z,5.63
2022-08-10T23:38:44.157Z,7.35
2022-08-10T23:41:04.098Z,5.55
2022-08-10T23:43:09.037Z,7.05
2022-08-10T23:45:28.270Z,7.45
2022-08-10T23:47:34.589Z,7.38
2022-08-10T23:49:40.010Z,7.05
2022-08-10T23:51:55.490Z,7.70
2022-08-10T23:54:14.652Z,8.73
2022-08-10T23:56:21.809Z,4.32
2022-08-10T23:58:30.304Z,6.65
